»·PEaware :: N3TA KSLC-KEGE

N3TA :: KSLC-KEGE

FLIGHT INFORMATION

Flight Status: Arrived
Operator: Privately registered:
United States
More flights under this callsign
Pilot: Oliver L. (19934)
Aircraft: Unknown
(SF50)
More flights by this aircraft type
Origin: KSLC Salt Lake City Intl
United States
Destination: KEGE Eagle Co Regl
United States
More flights between these airports :: More routes between these airports
Route: +SLC4 EKR RLG
File this flight plan on PilotEdge
Remarks:
Altitude:
(Current/Filed)
27,000ft
Speed:
(Current/Filed)
320kts
Departed: 11-Jan-19 06:10 PM
Arrived: 11-Jan-19 07:15 PM
Distance/Time
Traveled:
244nm/1:05
Distance/Time
To Go:
Arrived

Flight Plot

Page will automatically refresh every two minutes.

Flight plan parsing failed; only flown route is shown


Map Options




Map Legend


Flown Route
Filed Route
Departure Airport
Arrival Airport
Navaid (VOR, NDB)
Fix

Horizontal Profiles

Position Reports

Time Latitude Longitude Heading Altitude Ground
Speed
11-Jan-19 17:52 40.775306 -111.958883 357 4231ft 0kts
11-Jan-19 17:53 40.775306 -111.958883 357 4231ft 0kts
11-Jan-19 17:54 40.775306 -111.958883 357 4231ft 0kts
11-Jan-19 17:55 40.775306 -111.958883 357 4231ft 0kts
11-Jan-19 17:56 40.775306 -111.958883 357 4231ft 0kts
11-Jan-19 17:57 40.775306 -111.958883 357 4231ft 0kts
11-Jan-19 17:58 40.775306 -111.958883 357 4231ft 0kts
11-Jan-19 17:59 40.775401 -111.958972 298 4231ft 3kts
11-Jan-19 18:00 40.775387 -111.960430 240 4231ft 9kts
11-Jan-19 18:01 40.773396 -111.960630 181 4231ft 0kts
11-Jan-19 18:02 40.773396 -111.960630 181 4231ft 0kts
11-Jan-19 18:03 40.773396 -111.960630 181 4231ft 0kts
11-Jan-19 18:04 40.772943 -111.960694 211 4231ft 2kts
11-Jan-19 18:05 40.772940 -111.960696 212 4231ft 0kts
11-Jan-19 18:06 40.772791 -111.960925 238 4231ft 0kts
11-Jan-19 18:07 40.772791 -111.960925 238 4231ft 0kts
11-Jan-19 18:08 40.772748 -111.961094 256 4231ft 7kts
11-Jan-19 18:09 40.789284 -111.962815 340 4593ft 116kts
11-Jan-19 18:10 40.824649 -111.994855 326 6111ft 188kts
11-Jan-19 18:11 40.872876 -112.039595 326 7778ft 229kts
11-Jan-19 18:12 40.925752 -112.089183 326 9382ft 239kts
11-Jan-19 18:13 40.983187 -112.122829 28 10957ft 237kts
11-Jan-19 18:14 41.033559 -112.064263 41 12581ft 245kts
11-Jan-19 18:15 41.084085 -112.003572 41 14166ft 246kts
11-Jan-19 18:16 41.110497 -111.931096 118 15717ft 263kts
11-Jan-19 18:17 41.081533 -111.845138 103 17266ft 254kts
11-Jan-19 18:18 41.059643 -111.755536 101 18478ft 262kts
11-Jan-19 18:19 41.037234 -111.662055 101 19504ft 270kts
11-Jan-19 18:20 41.014380 -111.566960 101 20521ft 273kts
11-Jan-19 18:21 40.991306 -111.471358 100 21534ft 274kts
11-Jan-19 18:22 40.967973 -111.375055 100 22554ft 274kts
11-Jan-19 18:23 40.945643 -111.283527 99 23522ft 243kts
11-Jan-19 18:24 40.924836 -111.198014 99 24547ft 248kts
11-Jan-19 18:25 40.903392 -111.110502 99 25588ft 253kts
11-Jan-19 18:26 40.881863 -111.022842 99 26558ft 255kts
11-Jan-19 18:27 40.859754 -110.933115 100 27081ft 275kts
11-Jan-19 18:28 40.833287 -110.826355 102 25869ft 336kts
11-Jan-19 18:29 40.803011 -110.705153 103 25244ft 349kts
11-Jan-19 18:30 40.772918 -110.584996 103 25243ft 343kts
11-Jan-19 18:31 40.743126 -110.466615 103 25244ft 341kts
11-Jan-19 18:32 40.713496 -110.349468 103 25243ft 339kts
11-Jan-19 18:33 40.683827 -110.232716 103 25233ft 339kts
11-Jan-19 18:34 40.653878 -110.115462 103 25227ft 339kts
11-Jan-19 18:35 40.623608 -109.997513 103 25227ft 339kts
11-Jan-19 18:36 40.593428 -109.880466 103 25227ft 339kts
11-Jan-19 18:37 40.563070 -109.763316 103 25228ft 339kts
11-Jan-19 18:38 40.532586 -109.646236 103 25229ft 339kts
11-Jan-19 18:39 40.501893 -109.528919 103 25228ft 339kts
11-Jan-19 18:40 40.471099 -109.411793 103 25229ft 339kts
11-Jan-19 18:41 40.440694 -109.296640 104 25228ft 340kts
11-Jan-19 18:42 40.409647 -109.179631 104 25229ft 340kts
11-Jan-19 18:43 40.378464 -109.062584 105 25229ft 340kts
11-Jan-19 18:44 40.357786 -108.943019 95 25230ft 337kts
11-Jan-19 18:45 40.341849 -108.821917 95 25230ft 338kts
11-Jan-19 18:46 40.325842 -108.700834 95 25229ft 338kts
11-Jan-19 18:47 40.309661 -108.579453 95 25212ft 339kts
11-Jan-19 18:48 40.293329 -108.457964 95 25195ft 339kts
11-Jan-19 18:49 40.277349 -108.340033 96 25193ft 339kts
11-Jan-19 18:50 40.260760 -108.218604 96 25193ft 339kts
11-Jan-19 18:51 40.244120 -108.097785 96 25193ft 339kts
11-Jan-19 18:52 40.227437 -107.977588 96 25191ft 339kts
11-Jan-19 18:53 40.209606 -107.850098 96 23756ft 370kts
11-Jan-19 18:54 40.190739 -107.716517 96 22301ft 380kts
11-Jan-19 18:55 40.172143 -107.582802 92 20817ft 364kts
11-Jan-19 18:57 40.153477 -107.454627 96 19327ft 359kts
11-Jan-19 18:58 40.135703 -107.332212 97 17913ft 358kts
11-Jan-19 18:59 40.117182 -107.205498 97 17017ft 345kts
11-Jan-19 19:00 40.099817 -107.087430 96 17011ft 329kts
11-Jan-19 19:01 40.082948 -106.973430 97 17005ft 324kts
11-Jan-19 19:02 40.063534 -106.858938 110 17004ft 325kts
11-Jan-19 19:03 40.031294 -106.746183 109 15459ft 341kts
11-Jan-19 19:04 39.999922 -106.635667 109 13996ft 299kts
11-Jan-19 19:05 39.972223 -106.538757 109 13985ft 277kts
11-Jan-19 19:06 39.923194 -106.542823 223 13984ft 214kts
11-Jan-19 19:07 39.870130 -106.572846 200 13989ft 216kts
11-Jan-19 19:08 39.813457 -106.598016 200 13978ft 214kts
11-Jan-19 19:09 39.755361 -106.620745 197 12580ft 214kts
11-Jan-19 19:10 39.700941 -106.643389 222 12057ft 206kts
11-Jan-19 19:11 39.678144 -106.710084 256 11076ft 173kts
11-Jan-19 19:12 39.665590 -106.763150 265 11015ft 133kts
11-Jan-19 19:13 39.665030 -106.817799 264 9336ft 163kts
11-Jan-19 19:14 39.652207 -106.865465 267 7602ft 96kts
11-Jan-19 19:15 39.651266 -106.870783 147 6478ft 0kts
11-Jan-19 19:15 39.651266 -106.870783 147 6478ft 0kts
11-Jan-19 19:16 39.651266 -106.870783 147 6478ft 0kts
11-Jan-19 19:18 39.651266 -106.870783 147 6478ft 0kts
11-Jan-19 19:19 39.651266 -106.870783 147 6478ft 0kts
11-Jan-19 19:19 39.651266 -106.870783 147 6478ft 0kts
11-Jan-19 19:20 39.651266 -106.870783 147 6478ft 0kts
11-Jan-19 19:21 39.651266 -106.870783 147 6478ft 0kts

Navigation Log

Ident Type
Flight plan parsing failed, navigation log unavailable